TimeAKDT,TemperatureF,Dew PointF,Humidity,Sea Level PressureIn,VisibilityMPH,Wind Direction,Wind SpeedMPH,Gust SpeedMPH,PrecipitationIn,Events,Conditions,WindDirDegrees,DateUTC
12:53 AM,28.0,25.0,88,29.37,10.0,North,4.6,-,N/A,,Clear,10,2013-09-30 08:53:00
1:53 AM,26.1,23.0,88,29.38,10.0,Calm,Calm,-,N/A,,Clear,0,2013-09-30 09:53:00
2:53 AM,26.1,23.0,88,29.39,10.0,NNE,5.8,-,N/A,,Clear,30,2013-09-30 10:53:00
3:53 AM,24.1,21.0,88,29.40,10.0,West,3.5,-,N/A,,Clear,280,2013-09-30 11:53:00
4:53 AM,25.0,23.0,92,29.41,10.0,ENE,3.5,-,N/A,,Clear,70,2013-09-30 12:53:00
5:53 AM,28.0,25.0,88,29.43,10.0,NNW,3.5,-,N/A,,Clear,340,2013-09-30 13:53:00
6:53 AM,27.0,25.0,92,29.44,10.0,Calm,Calm,-,N/A,,Scattered Clouds,0,2013-09-30 14:53:00
7:53 AM,25.0,24.1,96,29.47,10.0,Calm,Calm,-,N/A,,Clear,0,2013-09-30 15:53:00
8:53 AM,26.1,23.0,88,29.49,10.0,Calm,Calm,-,N/A,,Clear,0,2013-09-30 16:53:00
9:53 AM,32.0,28.0,85,29.49,10.0,South,3.5,-,N/A,,Partly Cloudy,190,2013-09-30 17:53:00
10:53 AM,35.1,28.0,76,29.51,10.0,East,5.8,-,N/A,,Clear,100,2013-09-30 18:53:00
11:53 AM,41.0,28.0,60,29.52,10.0,Calm,Calm,-,N/A,,Mostly Cloudy,0,2013-09-30 19:53:00
12:53 PM,42.1,28.0,58,29.52,10.0,Calm,Calm,-,N/A,,Clear,0,2013-09-30 20:53:00
1:53 PM,43.0,28.0,56,29.53,10.0,Calm,Calm,-,N/A,,Clear,0,2013-09-30 21:53:00
2:53 PM,44.1,28.0,53,29.53,10.0,Calm,Calm,-,N/A,,Clear,0,2013-09-30 22:53:00
3:53 PM,45.0,28.9,53,29.54,10.0,NE,3.5,-,N/A,,Overcast,50,2013-09-30 23:53:00
4:53 PM,45.0,28.9,53,29.54,10.0,Calm,Calm,-,N/A,,Mostly Cloudy,0,2013-10-01 00:53:00
5:53 PM,44.1,28.9,55,29.55,10.0,Calm,Calm,-,N/A,,Clear,0,2013-10-01 01:53:00
6:53 PM,43.0,30.0,60,29.57,10.0,Calm,Calm,-,N/A,,Overcast,0,2013-10-01 02:53:00
7:53 PM,37.0,30.0,76,29.59,10.0,Calm,Calm,-,N/A,,Overcast,0,2013-10-01 03:53:00
8:53 PM,37.0,28.0,70,29.60,10.0,NNW,4.6,-,N/A,,Overcast,340,2013-10-01 04:53:00
9:53 PM,35.1,27.0,72,29.61,10.0,NNW,4.6,-,N/A,,Scattered Clouds,340,2013-10-01 05:53:00
10:53 PM,32.0,26.1,79,29.62,10.0,Calm,Calm,-,N/A,,Overcast,0,2013-10-01 06:53:00
11:53 PM,28.9,25.0,85,29.64,10.0,West,3.5,-,N/A,,Clear,270,2013-10-01 07:53:00